Caledonia, Michigan
Current Conditions -  °F | °C
As of 11:53 PM on Friday 19 Dec 2014 (Local Time) from KGRR Reporting Station
Few Clouds Few Clouds  
Wind Chill: 11°   Ceiling: Unl
Heat Index: 20°   Visibility: 9mi
Dew Point: 17°   Wind: 7mph
Humidity: 89%   Direction: 160°SSE
Pressure: 30.27"   Gusts: NA
Location:  42.79°N, 85.52°W
Report Text: KGRR 200453Z 16006KT 9SM FEW220 M07/M08 A3027 RMK AO2 SLP263 T10671083 400061067
Loading
Personal Weather Stations






























Interactive Weather Map New forecast layout! Learn more

10-Day Weather Forecast

Advertisements
Track Severe Weather on mobile